createdAt,value
2022-11-15T00:01:10.832Z,8.90
2022-11-15T00:03:38.695Z,8.90
2022-11-15T00:06:08.119Z,9.00
2022-11-15T00:08:35.965Z,9.00
2022-11-15T00:11:04.895Z,9.00
2022-11-15T00:13:33.262Z,9.00
2022-11-15T00:16:02.616Z,9.00
2022-11-15T00:18:31.297Z,9.00
2022-11-15T00:21:05.946Z,9.00
2022-11-15T00:23:35.420Z,9.00
2022-11-15T00:26:03.632Z,9.00
2022-11-15T00:28:31.870Z,9.10
2022-11-15T00:31:03.098Z,9.10
2022-11-15T00:33:31.636Z,9.10
2022-11-15T00:36:05.618Z,9.10
2022-11-15T00:38:36.519Z,9.20
2022-11-15T00:41:09.688Z,9.20
2022-11-15T00:43:38.650Z,9.20
2022-11-15T00:46:06.727Z,9.20
2022-11-15T00:48:34.758Z,9.20
2022-11-15T00:51:02.842Z,9.20
2022-11-15T00:53:31.087Z,9.30
2022-11-15T00:56:00.503Z,9.30
2022-11-15T00:58:28.444Z,9.30
2022-11-15T01:00:56.391Z,9.30
2022-11-15T01:03:24.381Z,9.30
2022-11-15T01:05:52.282Z,9.30
2022-11-15T01:08:20.213Z,9.40
2022-11-15T01:10:48.081Z,9.40
2022-11-15T01:13:17.291Z,9.40
2022-11-15T01:15:45.459Z,9.40
2022-11-15T01:18:13.484Z,9.40
2022-11-15T01:20:42.946Z,9.40
2022-11-15T01:23:11.098Z,9.40
2022-11-15T01:25:38.941Z,9.40
2022-11-15T01:28:07.040Z,9.50
2022-11-15T01:30:37.885Z,9.50
2022-11-15T01:33:05.781Z,9.50
2022-11-15T01:35:33.910Z,9.50
2022-11-15T01:38:01.773Z,9.50
2022-11-15T01:40:29.671Z,9.50
2022-11-15T01:42:57.537Z,9.60
2022-11-15T01:45:25.740Z,9.60
2022-11-15T01:47:57.079Z,9.60
2022-11-15T01:50:29.034Z,9.60
2022-11-15T01:52:57.370Z,9.60
2022-11-15T01:55:28.246Z,9.70
2022-11-15T01:57:58.856Z,9.70
2022-11-15T02:00:26.691Z,9.70
2022-11-15T02:02:56.029Z,9.70
2022-11-15T02:05:24.299Z,9.70
2022-11-15T02:07:52.711Z,9.70
2022-11-15T02:10:23.040Z,9.80
2022-11-15T02:12:52.398Z,9.80
2022-11-15T02:15:20.590Z,9.90
2022-11-15T02:18:00.487Z,9.90
2022-11-15T02:20:45.023Z,9.90
2022-11-15T02:23:51.651Z,9.90
2022-11-15T02:26:59.470Z,9.90
2022-11-15T02:29:37.483Z,9.90
2022-11-15T02:32:12.928Z,10.00
2022-11-15T02:34:50.264Z,9.90
2022-11-15T02:37:23.415Z,10.00
2022-11-15T02:39:58.728Z,10.00
2022-11-15T02:42:47.694Z,10.00
2022-11-15T02:45:22.260Z,10.00
2022-11-15T02:47:54.556Z,10.10
2022-11-15T02:50:25.430Z,10.10
2022-11-15T02:52:53.731Z,10.10
2022-11-15T02:55:29.775Z,10.20
2022-11-15T02:58:09.024Z,10.20
2022-11-15T03:00:42.073Z,10.20
2022-11-15T03:03:24.996Z,10.20
2022-11-15T03:06:00.179Z,10.30
2022-11-15T03:08:34.165Z,10.30
2022-11-15T03:11:09.291Z,10.30
2022-11-15T03:13:43.173Z,10.30
2022-11-15T03:16:15.232Z,10.40
2022-11-15T03:18:47.544Z,10.40
2022-11-15T03:21:17.616Z,10.40
2022-11-15T03:23:47.327Z,10.40
2022-11-15T03:26:17.446Z,10.50
2022-11-15T03:28:51.298Z,10.50
2022-11-15T03:31:38.944Z,10.50
2022-11-15T03:34:13.509Z,10.50
2022-11-15T03:36:41.855Z,10.50
2022-11-15T03:39:10.952Z,10.50
2022-11-15T03:41:45.168Z,10.60
2022-11-15T03:44:19.280Z,10.60
2022-11-15T03:46:49.061Z,10.70
2022-11-15T03:49:25.457Z,10.60
2022-11-15T03:51:53.511Z,10.60
2022-11-15T03:54:21.417Z,10.70
2022-11-15T03:56:49.286Z,10.70
2022-11-15T03:59:17.174Z,10.70
2022-11-15T04:01:45.044Z,10.80
2022-11-15T04:04:12.980Z,10.80
2022-11-15T04:06:42.388Z,10.80
2022-11-15T04:09:10.267Z,10.90
2022-11-15T04:11:38.108Z,10.90
2022-11-15T04:14:06.091Z,10.90
2022-11-15T04:16:34.030Z,11.00
2022-11-15T04:19:19.575Z,11.00
2022-11-15T04:22:06.229Z,11.00
2022-11-15T04:24:34.175Z,11.00
2022-11-15T04:27:02.352Z,11.10
2022-11-15T04:29:36.305Z,11.10
2022-11-15T04:32:04.834Z,11.10
2022-11-15T04:34:33.176Z,11.10
2022-11-15T04:37:14.523Z,11.20
2022-11-15T04:39:42.424Z,11.20
2022-11-15T04:42:10.998Z,11.20
2022-11-15T04:44:38.932Z,11.30
2022-11-15T04:47:06.908Z,11.30
2022-11-15T04:49:34.816Z,11.30
2022-11-15T04:52:04.017Z,11.30
2022-11-15T04:54:31.974Z,11.30
2022-11-15T04:56:59.878Z,11.40
2022-11-15T04:59:27.843Z,11.40
2022-11-15T05:01:55.706Z,11.40
2022-11-15T05:04:22.756Z,11.40
2022-11-15T05:06:52.590Z,11.40
2022-11-15T05:09:22.774Z,11.40
2022-11-15T05:11:50.867Z,11.50
2022-11-15T05:14:18.748Z,11.50
2022-11-15T05:16:46.635Z,11.50
2022-11-15T05:19:14.634Z,11.50
2022-11-15T05:21:42.579Z,11.60
2022-11-15T05:24:12.255Z,11.60
2022-11-15T05:26:41.574Z,11.60
2022-11-15T05:29:12.583Z,11.60
2022-11-15T05:31:43.206Z,11.60
2022-11-15T05:34:11.490Z,11.60
2022-11-15T05:36:40.841Z,11.60
2022-11-15T05:39:10.111Z,11.70
2022-11-15T05:41:42.958Z,11.70
2022-11-15T05:44:15.206Z,11.70
2022-11-15T05:46:44.169Z,11.70
2022-11-15T05:49:16.406Z,11.70
2022-11-15T05:51:47.920Z,11.70
2022-11-15T05:54:16.919Z,11.70
2022-11-15T05:56:46.424Z,11.70
2022-11-15T05:59:14.738Z,11.70
2022-11-15T06:01:43.053Z,11.70
2022-11-15T06:04:11.249Z,11.80
2022-11-15T06:06:39.351Z,11.80
2022-11-15T06:09:07.305Z,11.80
2022-11-15T06:11:35.202Z,11.90
2022-11-15T06:14:04.566Z,11.90
2022-11-15T06:16:32.489Z,11.90
2022-11-15T06:19:00.559Z,11.90
2022-11-15T06:21:30.194Z,12.00
2022-11-15T06:23:58.121Z,11.90
2022-11-15T06:26:26.124Z,12.00
2022-11-15T06:28:54.055Z,12.00
2022-11-15T06:31:23.393Z,12.00
2022-11-15T06:33:51.526Z,12.00
2022-11-15T06:36:19.393Z,12.00
2022-11-15T06:38:47.822Z,12.10
2022-11-15T06:41:17.823Z,12.10
2022-11-15T06:43:45.761Z,12.10
2022-11-15T06:46:13.626Z,12.10
2022-11-15T06:48:42.839Z,12.10
2022-11-15T06:51:10.895Z,12.10
2022-11-15T06:53:38.930Z,12.10
2022-11-15T06:56:08.780Z,12.10
2022-11-15T06:58:37.031Z,12.20
2022-11-15T07:01:07.034Z,12.20
2022-11-15T07:03:37.293Z,12.20
2022-11-15T07:06:07.959Z,12.20
2022-11-15T07:08:36.896Z,12.20
2022-11-15T07:11:07.375Z,12.20
2022-11-15T07:13:36.967Z,12.20
2022-11-15T07:16:05.752Z,12.20
2022-11-15T07:18:35.415Z,12.20
2022-11-15T07:21:06.325Z,12.20
2022-11-15T07:23:34.939Z,12.20
2022-11-15T07:26:02.897Z,12.20
2022-11-15T07:28:30.914Z,12.20
2022-11-15T07:30:59.319Z,12.20
2022-11-15T07:33:27.171Z,12.20
2022-11-15T07:35:55.093Z,12.20
2022-11-15T07:38:24.441Z,12.20
2022-11-15T07:40:58.562Z,12.20
2022-11-15T07:43:26.968Z,12.20
2022-11-15T07:45:59.066Z,12.20
2022-11-15T07:48:42.242Z,12.20
2022-11-15T07:51:14.580Z,12.20
2022-11-15T07:53:44.082Z,12.20
2022-11-15T07:56:12.716Z,12.20
2022-11-15T07:58:40.554Z,12.30
2022-11-15T08:01:10.195Z,12.30
2022-11-15T08:03:38.943Z,12.30
2022-11-15T08:06:07.429Z,12.30
2022-11-15T08:08:35.389Z,12.30
2022-11-15T08:11:04.764Z,12.30
2022-11-15T08:13:33.116Z,12.30
2022-11-15T08:16:01.645Z,12.40
2022-11-15T08:18:29.547Z,12.40
2022-11-15T08:21:01.703Z,12.40
2022-11-15T08:23:30.844Z,12.40
2022-11-15T08:26:04.655Z,12.40
2022-11-15T08:28:33.255Z,12.40
2022-11-15T08:31:01.267Z,12.40
2022-11-15T08:33:29.955Z,12.40
2022-11-15T08:35:59.186Z,12.40
2022-11-15T08:38:27.411Z,12.40
2022-11-15T08:41:02.053Z,12.50
2022-11-15T08:43:31.578Z,12.50
2022-11-15T08:46:00.180Z,12.50
2022-11-15T08:48:28.154Z,12.50
2022-11-15T08:50:56.453Z,12.50
2022-11-15T08:53:24.561Z,12.60
2022-11-15T08:55:52.595Z,12.50
2022-11-15T08:58:20.545Z,12.60
2022-11-15T09:00:49.768Z,12.60
2022-11-15T09:03:17.626Z,12.60
2022-11-15T09:05:45.552Z,12.60
2022-11-15T09:08:45.645Z,12.60
2022-11-15T09:11:05.339Z,12.60
2022-11-15T09:13:33.323Z,12.60
2022-11-15T09:16:03.529Z,12.70
2022-11-15T09:18:31.870Z,12.60
2022-11-15T09:21:00.740Z,12.60
2022-11-15T09:23:29.914Z,12.60
2022-11-15T09:26:02.223Z,12.70
2022-11-15T09:28:30.641Z,12.70
2022-11-15T09:31:00.807Z,12.70
2022-11-15T09:33:30.825Z,12.70
2022-11-15T09:36:03.710Z,12.70
2022-11-15T09:38:31.804Z,12.80
2022-11-15T09:41:38.610Z,12.80
2022-11-15T09:44:25.089Z,12.80
2022-11-15T09:47:04.870Z,12.80
2022-11-15T09:49:34.757Z,12.80
2022-11-15T09:52:03.202Z,12.80
2022-11-15T09:57:30.743Z,12.90
2022-11-15T10:00:38.701Z,12.90
2022-11-15T10:03:09.793Z,12.90
2022-11-15T10:05:41.572Z,12.90
2022-11-15T10:08:25.886Z,12.90
2022-11-15T10:11:22.733Z,12.90
2022-11-15T10:13:49.094Z,12.90
2022-11-15T10:16:35.939Z,12.90
2022-11-15T10:19:12.208Z,13.00
2022-11-15T10:21:50.880Z,13.00
2022-11-15T10:24:22.373Z,13.10
2022-11-15T10:26:51.156Z,13.00
2022-11-15T10:29:26.513Z,13.00
2022-11-15T10:31:55.261Z,13.10
2022-11-15T10:34:24.798Z,13.10
2022-11-15T10:36:58.795Z,13.10
2022-11-15T10:39:28.141Z,13.20
2022-11-15T10:41:56.280Z,13.20
2022-11-15T10:44:27.831Z,13.20
2022-11-15T10:47:25.826Z,13.20
2022-11-15T10:49:59.772Z,13.20
2022-11-15T10:52:30.496Z,13.10
2022-11-15T10:55:03.443Z,13.20
2022-11-15T10:57:33.797Z,13.20
2022-11-15T11:00:08.134Z,13.20
2022-11-15T11:02:38.656Z,13.30
2022-11-15T11:05:08.990Z,13.30
2022-11-15T11:07:38.821Z,13.30
2022-11-15T11:10:50.899Z,13.30
2022-11-15T11:13:16.869Z,13.30
2022-11-15T11:15:47.663Z,13.30
2022-11-15T11:18:24.511Z,13.30
2022-11-15T11:20:56.980Z,13.30
2022-11-15T11:23:40.540Z,13.30
2022-11-15T11:26:28.629Z,13.40
2022-11-15T11:29:04.485Z,13.40
2022-11-15T11:31:42.171Z,13.40
2022-11-15T11:34:19.211Z,13.40
2022-11-15T11:36:54.862Z,13.40
2022-11-15T11:39:39.105Z,13.40
2022-11-15T11:42:17.744Z,13.40
2022-11-15T11:44:56.912Z,13.40
2022-11-15T11:47:26.926Z,13.40
2022-11-15T11:49:59.604Z,13.40
2022-11-15T11:52:32.217Z,13.40
2022-11-15T11:55:06.814Z,13.40
2022-11-15T11:57:42.315Z,13.40
2022-11-15T12:00:20.419Z,13.40
2022-11-15T12:03:05.315Z,13.40
2022-11-15T12:05:38.882Z,13.40
2022-11-15T12:08:27.566Z,13.40
2022-11-15T12:11:05.532Z,13.40
2022-11-15T12:13:37.788Z,13.40
2022-11-15T12:16:13.109Z,13.40
2022-11-15T12:18:41.267Z,13.40
2022-11-15T12:21:18.324Z,13.40
2022-11-15T12:23:50.838Z,13.40
2022-11-15T12:26:22.898Z,13.40
2022-11-15T12:29:06.931Z,13.40
2022-11-15T12:31:41.832Z,13.40
2022-11-15T12:34:17.455Z,13.30
2022-11-15T12:36:46.694Z,13.30
2022-11-15T12:39:16.105Z,13.30
2022-11-15T12:42:06.951Z,13.30
2022-11-15T12:45:00.511Z,13.30
2022-11-15T12:47:29.414Z,13.30
2022-11-15T12:49:57.352Z,13.30
2022-11-15T12:52:25.386Z,13.30
2022-11-15T12:54:56.634Z,13.40
2022-11-15T12:57:37.327Z,13.40
2022-11-15T13:00:48.650Z,13.40
2022-11-15T13:03:28.835Z,13.40
2022-11-15T13:06:07.071Z,13.40
2022-11-15T13:08:39.242Z,13.40
2022-11-15T13:11:45.593Z,13.40
2022-11-15T13:14:56.915Z,13.40
2022-11-15T13:17:40.711Z,13.40
2022-11-15T13:20:28.266Z,13.30
2022-11-15T13:23:04.747Z,13.30
2022-11-15T13:26:13.995Z,13.30
2022-11-15T13:28:46.676Z,13.30
2022-11-15T13:31:37.983Z,13.30
2022-11-15T13:34:49.457Z,13.30
2022-11-15T13:37:14.726Z,13.30
2022-11-15T13:39:42.600Z,13.30
2022-11-15T13:42:17.065Z,13.30
2022-11-15T13:44:57.662Z,13.30
2022-11-15T13:47:29.643Z,13.30
2022-11-15T13:49:59.549Z,13.30
2022-11-15T13:52:33.551Z,13.30
2022-11-15T13:55:05.035Z,13.30
2022-11-15T13:57:43.043Z,13.30
2022-11-15T14:00:35.183Z,13.30
2022-11-15T14:03:20.744Z,13.30
2022-11-15T14:06:05.564Z,13.30
2022-11-15T14:08:33.838Z,13.30
2022-11-15T14:11:11.676Z,13.20
2022-11-15T14:13:39.636Z,13.20
2022-11-15T14:16:21.901Z,13.20
2022-11-15T14:18:52.528Z,13.30
2022-11-15T14:21:21.654Z,13.20
2022-11-15T14:23:50.078Z,13.20
2022-11-15T14:26:32.636Z,13.20
2022-11-15T14:29:24.295Z,13.20
2022-11-15T14:31:52.424Z,13.20
2022-11-15T14:34:23.170Z,13.20
2022-11-15T14:36:51.056Z,13.20
2022-11-15T14:39:18.909Z,13.20
2022-11-15T14:41:46.802Z,13.20
2022-11-15T14:44:19.374Z,13.20
2022-11-15T14:46:47.606Z,13.20
2022-11-15T14:49:16.305Z,13.10
2022-11-15T14:51:45.618Z,13.20
2022-11-15T14:54:13.528Z,13.20
2022-11-15T14:56:42.418Z,13.20
2022-11-15T14:59:10.300Z,13.20
2022-11-15T15:01:38.219Z,13.20
2022-11-15T15:04:06.138Z,13.20
2022-11-15T15:06:34.070Z,13.20
2022-11-15T15:09:03.447Z,13.20
2022-11-15T15:11:33.075Z,13.20
2022-11-15T15:14:02.191Z,13.20
2022-11-15T15:16:30.086Z,13.20
2022-11-15T15:18:58.147Z,13.20
2022-11-15T15:21:33.559Z,13.20
2022-11-15T15:24:05.355Z,13.20
2022-11-15T15:26:35.590Z,13.20
2022-11-15T15:29:03.436Z,13.20
2022-11-15T15:31:31.517Z,13.20
2022-11-15T15:33:59.371Z,13.20
2022-11-15T15:36:27.309Z,13.20
2022-11-15T15:38:55.150Z,13.20
2022-11-15T15:41:25.517Z,13.20
2022-11-15T15:43:53.388Z,13.20
2022-11-15T15:46:22.315Z,13.20
2022-11-15T15:48:50.243Z,13.20
2022-11-15T15:51:20.391Z,13.20
2022-11-15T15:53:48.855Z,13.20
2022-11-15T15:56:16.836Z,13.20
2022-11-15T15:58:46.098Z,13.20
2022-11-15T16:01:14.428Z,13.20
2022-11-15T16:03:42.310Z,13.20
2022-11-15T16:06:40.424Z,13.20
2022-11-15T16:09:15.335Z,13.20
2022-11-15T16:11:44.203Z,13.10
2022-11-15T16:14:13.549Z,13.20
2022-11-15T16:16:41.522Z,13.20
2022-11-15T16:19:12.430Z,13.20
2022-11-15T16:21:40.346Z,13.20
2022-11-15T16:24:08.255Z,13.20
2022-11-15T16:26:37.812Z,13.20
2022-11-15T16:29:05.796Z,13.20
2022-11-15T16:31:35.019Z,13.20
2022-11-15T16:34:02.899Z,13.20
2022-11-15T16:36:34.825Z,13.20
2022-11-15T16:39:05.104Z,13.20
2022-11-15T16:41:33.578Z,13.20
2022-11-15T16:44:01.630Z,13.20
2022-11-15T16:46:30.038Z,13.30
2022-11-15T16:48:59.400Z,13.30
2022-11-15T16:51:27.283Z,13.30
2022-11-15T16:53:55.140Z,13.30
2022-11-15T16:56:27.231Z,13.30
2022-11-15T16:58:55.819Z,13.30
2022-11-15T17:01:25.630Z,13.30
2022-11-15T17:03:54.183Z,13.30
2022-11-15T17:06:24.127Z,13.40
2022-11-15T17:08:52.152Z,13.40
2022-11-15T17:11:21.669Z,13.40
2022-11-15T17:13:49.804Z,13.40
2022-11-15T17:16:19.129Z,13.40
2022-11-15T17:18:51.727Z,13.40
2022-11-15T17:21:22.138Z,13.40
2022-11-15T17:23:51.460Z,13.40
2022-11-15T17:26:39.207Z,13.40
2022-11-15T17:29:08.852Z,13.40
2022-11-15T17:31:37.971Z,13.30
2022-11-15T17:34:07.002Z,13.30
2022-11-15T17:36:35.843Z,13.30
2022-11-15T17:39:06.249Z,13.30
2022-11-15T17:41:34.195Z,13.30
2022-11-15T17:44:03.816Z,13.30
2022-11-15T17:46:33.542Z,13.30
2022-11-15T17:49:01.549Z,13.20
2022-11-15T17:51:29.541Z,13.20
2022-11-15T17:53:57.769Z,13.20
2022-11-15T17:56:29.666Z,13.20
2022-11-15T17:58:59.207Z,13.20
2022-11-15T18:01:28.822Z,13.20
2022-11-15T18:04:00.195Z,13.20
2022-11-15T18:06:30.447Z,13.10
2022-11-15T18:08:59.028Z,13.10
2022-11-15T18:11:30.103Z,13.10
2022-11-15T18:14:00.179Z,13.10
2022-11-15T18:16:31.273Z,13.10
2022-11-15T18:18:59.895Z,13.10
2022-11-15T18:21:29.968Z,13.10
2022-11-15T18:23:59.549Z,13.10
2022-11-15T18:26:30.230Z,13.10
2022-11-15T18:29:03.755Z,13.10
2022-11-15T18:31:32.576Z,13.10
2022-11-15T18:34:01.648Z,13.10
2022-11-15T18:36:32.174Z,13.10
2022-11-15T18:39:02.315Z,13.10
2022-11-15T18:41:32.419Z,13.10
2022-11-15T18:44:02.032Z,13.10
2022-11-15T18:46:32.569Z,13.10
2022-11-15T18:49:01.966Z,13.10
2022-11-15T18:51:31.868Z,13.10
2022-11-15T18:54:01.348Z,13.10
2022-11-15T18:56:32.562Z,13.10
2022-11-15T18:59:02.142Z,13.10
2022-11-15T19:01:32.725Z,13.10
2022-11-15T19:04:04.679Z,13.10
2022-11-15T19:06:32.630Z,13.10
2022-11-15T19:09:01.223Z,13.10
2022-11-15T19:11:32.268Z,13.10
2022-11-15T19:14:03.273Z,13.10
2022-11-15T19:16:33.225Z,13.10
2022-11-15T19:19:02.977Z,13.00
2022-11-15T19:21:32.047Z,13.00
2022-11-15T19:24:01.390Z,13.00
2022-11-15T19:26:31.085Z,13.00
2022-11-15T19:29:00.822Z,13.00
2022-11-15T19:31:30.263Z,13.00
2022-11-15T19:34:01.682Z,13.00
2022-11-15T19:36:32.449Z,13.00
2022-11-15T19:39:05.093Z,13.00
2022-11-15T19:41:34.828Z,13.00
2022-11-15T19:44:02.794Z,13.00
2022-11-15T19:46:30.808Z,13.00
2022-11-15T19:48:58.666Z,12.90
2022-11-15T19:51:29.445Z,13.00
2022-11-15T19:53:58.587Z,12.90
2022-11-15T19:56:27.114Z,13.00
2022-11-15T19:58:57.530Z,13.00
2022-11-15T20:01:27.458Z,13.00
2022-11-15T20:03:59.557Z,13.00
2022-11-15T20:06:29.223Z,13.00
2022-11-15T20:08:57.302Z,13.00
2022-11-15T20:11:26.147Z,13.00
2022-11-15T20:13:59.540Z,13.00
2022-11-15T20:16:27.485Z,13.00
2022-11-15T20:18:55.486Z,13.00
2022-11-15T20:21:23.574Z,13.00
2022-11-15T20:23:51.984Z,13.00
2022-11-15T20:26:20.673Z,13.00
2022-11-15T20:28:48.898Z,13.00
2022-11-15T20:31:18.807Z,13.00
2022-11-15T20:33:46.686Z,13.00
2022-11-15T20:36:16.391Z,13.00
2022-11-15T20:38:44.317Z,13.00
2022-11-15T20:41:12.470Z,13.10
2022-11-15T20:43:43.759Z,13.00
2022-11-15T20:46:12.520Z,13.10
2022-11-15T20:48:41.808Z,13.10
2022-11-15T20:51:13.226Z,13.10
2022-11-15T20:53:42.059Z,13.10
2022-11-15T20:56:12.584Z,13.10
2022-11-15T20:58:40.556Z,13.10
2022-11-15T21:01:11.392Z,13.10
2022-11-15T21:03:39.284Z,13.10
2022-11-15T21:06:09.190Z,13.10
2022-11-15T21:08:51.119Z,13.10
2022-11-15T21:11:36.334Z,13.10
2022-11-15T21:14:09.036Z,13.10
2022-11-15T21:16:37.929Z,13.10
2022-11-15T21:19:06.630Z,13.10
2022-11-15T21:21:36.772Z,13.00
2022-11-15T21:24:04.780Z,13.10
2022-11-15T21:26:32.696Z,13.00
2022-11-15T21:29:00.655Z,13.10
2022-11-15T21:31:28.722Z,13.10
2022-11-15T21:33:56.613Z,13.10
2022-11-15T21:36:25.629Z,13.10
2022-11-15T21:38:54.970Z,13.10
2022-11-15T21:41:22.812Z,13.10
2022-11-15T21:43:50.698Z,13.10
2022-11-15T21:46:18.948Z,13.10
2022-11-15T21:48:47.063Z,13.10
2022-11-15T21:51:14.959Z,13.00
2022-11-15T21:53:43.044Z,13.10
2022-11-15T21:56:12.994Z,13.00
2022-11-15T21:58:40.998Z,13.10
2022-11-15T22:01:28.669Z,13.00
2022-11-15T22:03:56.549Z,13.00
2022-11-15T22:06:24.452Z,13.00
2022-11-15T22:08:52.413Z,13.00
2022-11-15T22:11:21.848Z,13.10
2022-11-15T22:13:49.711Z,13.00
2022-11-15T22:16:17.584Z,13.10
2022-11-15T22:18:45.517Z,13.10
2022-11-15T22:21:15.264Z,13.10
2022-11-15T22:23:43.930Z,13.10
2022-11-15T22:26:13.767Z,13.10
2022-11-15T22:28:43.277Z,13.10
2022-11-15T22:31:12.025Z,13.10
2022-11-15T22:33:40.890Z,13.10
2022-11-15T22:36:10.080Z,13.10
2022-11-15T22:38:37.982Z,13.10
2022-11-15T22:41:06.099Z,13.10
2022-11-15T22:43:34.642Z,13.20
2022-11-15T22:46:05.348Z,13.10
2022-11-15T22:48:35.415Z,13.10
2022-11-15T22:51:04.253Z,13.10
2022-11-15T22:53:32.178Z,13.10
2022-11-15T22:56:02.588Z,13.10
2022-11-15T22:58:32.814Z,13.10
2022-11-15T23:01:04.767Z,13.10
2022-11-15T23:03:34.029Z,13.10
2022-11-15T23:06:03.686Z,13.10
2022-11-15T23:08:31.858Z,13.10
2022-11-15T23:11:19.168Z,13.10
2022-11-15T23:13:47.780Z,13.10
2022-11-15T23:16:31.013Z,13.10
2022-11-15T23:19:00.207Z,13.10
2022-11-15T23:21:47.700Z,13.10
2022-11-15T23:24:16.242Z,13.20
2022-11-15T23:26:45.293Z,13.10
2022-11-15T23:29:15.579Z,13.10
2022-11-15T23:32:02.981Z,13.10
2022-11-15T23:34:31.483Z,13.20
2022-11-15T23:36:59.551Z,13.10
2022-11-15T23:39:28.258Z,13.10
2022-11-15T23:41:56.167Z,13.10
2022-11-15T23:44:24.531Z,13.10
2022-11-15T23:46:54.097Z,13.20
2022-11-15T23:49:22.187Z,13.20
2022-11-15T23:51:50.335Z,13.10
2022-11-15T23:54:18.211Z,13.20
2022-11-15T23:56:46.108Z,13.20
2022-11-15T23:59:14.091Z,13.20
